createdAt,value
2023-05-05T01:57:51.005Z,78858.03
2023-05-05T02:00:21.399Z,78865.34
2023-05-05T02:02:51.935Z,78856.91
2023-05-05T02:05:24.855Z,78871.84
2023-05-05T02:07:59.420Z,78857.88
2023-05-05T02:10:31.000Z,78861.56
2023-05-05T02:13:05.796Z,78875.00
2023-05-05T02:15:36.750Z,78845.16
2023-05-05T02:40:36.638Z,78898.38
2023-05-05T02:43:11.364Z,78884.25
2023-05-05T02:45:40.610Z,78902.13
2023-05-05T02:48:11.517Z,78910.31
2023-05-05T02:50:41.455Z,78910.53
2023-05-05T02:53:23.944Z,78899.91
2023-05-05T02:56:19.685Z,78912.19
2023-05-05T02:58:58.320Z,78907.34
2023-05-05T03:02:08.548Z,78904.59
2023-05-05T03:04:43.915Z,78925.75
2023-05-05T03:07:23.702Z,78913.06
2023-05-05T03:10:10.829Z,78927.22
2023-05-05T03:12:54.011Z,78915.94
2023-05-05T03:15:43.260Z,78913.13
2023-05-05T03:18:13.634Z,78926.47
2023-05-05T03:20:46.105Z,78905.41
2023-05-05T03:23:21.770Z,78907.34
2023-05-05T03:25:56.030Z,78920.16
2023-05-05T03:28:35.668Z,78913.44
2023-05-05T03:31:11.622Z,78919.44
2023-05-05T03:33:42.325Z,78897.00
2023-05-05T03:36:11.790Z,78917.66
2023-05-05T03:38:41.529Z,78924.78
2023-05-05T03:41:11.406Z,78919.78
2023-05-05T03:43:40.592Z,78912.34
2023-05-05T03:46:09.670Z,78924.38
2023-05-05T03:48:38.889Z,78925.03
2023-05-05T03:51:08.570Z,78935.22
2023-05-05T03:53:38.283Z,78913.94
2023-05-05T03:56:09.173Z,78908.41
2023-05-05T03:58:39.145Z,78913.41
2023-05-05T04:01:09.357Z,78918.16
2023-05-05T04:03:39.967Z,78914.50
2023-05-05T04:06:09.022Z,78918.44
2023-05-05T04:08:38.030Z,78917.50
2023-05-05T04:11:07.365Z,78922.09
2023-05-05T04:13:37.094Z,78925.84
2023-05-05T04:16:06.592Z,78920.28
2023-05-05T04:18:35.717Z,78915.94
2023-05-05T04:21:05.285Z,78910.22
2023-05-05T04:23:34.455Z,78915.88
2023-05-05T04:26:03.719Z,78922.66
2023-05-05T04:28:32.740Z,78926.75
2023-05-05T04:31:02.417Z,78920.38
2023-05-05T04:33:33.407Z,78922.78
2023-05-05T04:36:02.549Z,78915.00
2023-05-05T04:38:31.882Z,78902.59
2023-05-05T04:41:01.620Z,78926.59
2023-05-05T04:43:30.903Z,78920.16
2023-05-05T04:46:00.136Z,78901.38
2023-05-05T04:48:33.093Z,78892.91
2023-05-05T04:51:08.475Z,78914.31
2023-05-05T04:53:38.685Z,78907.97
2023-05-05T04:56:07.806Z,78916.75
2023-05-05T04:58:37.028Z,78915.53
2023-05-05T05:01:07.503Z,78913.63
2023-05-05T05:03:37.722Z,78902.84
2023-05-05T05:06:06.963Z,78904.69
2023-05-05T05:08:37.775Z,78924.53
2023-05-05T05:11:07.416Z,78925.03
2023-05-05T05:13:37.145Z,78920.53
2023-05-05T05:16:07.979Z,78929.78
2023-05-05T05:18:37.276Z,78922.41
2023-05-05T05:21:07.073Z,78936.25
2023-05-05T05:23:36.446Z,78908.94
2023-05-05T05:26:06.918Z,78887.16
2023-05-05T05:28:37.428Z,78932.84
2023-05-05T05:31:06.400Z,78870.75
2023-05-05T05:33:35.631Z,78931.28
2023-05-05T05:36:05.091Z,78927.91
2023-05-05T05:38:34.329Z,78928.22
2023-05-05T05:41:09.634Z,78941.84
2023-05-05T05:43:39.871Z,78945.34
2023-05-05T05:46:09.580Z,78936.06
2023-05-05T05:48:41.028Z,78946.59
2023-05-05T05:51:10.295Z,78939.34
2023-05-05T05:53:40.076Z,78941.63
2023-05-05T05:56:11.169Z,78948.47
2023-05-05T05:58:41.525Z,78934.56
2023-05-05T06:01:10.686Z,78937.63
2023-05-05T06:03:39.809Z,78930.34
2023-05-05T06:06:09.151Z,78944.19
2023-05-05T06:08:38.462Z,78916.06
2023-05-05T06:11:08.134Z,78900.03
2023-05-05T06:13:37.133Z,78939.31
2023-05-05T06:16:08.498Z,78936.94
2023-05-05T06:18:39.224Z,78938.00
2023-05-05T06:21:08.402Z,78920.53
2023-05-05T06:23:37.620Z,78912.28
2023-05-05T06:26:08.721Z,78904.91
2023-05-05T06:28:37.672Z,78919.06
2023-05-05T06:31:06.977Z,78929.97
2023-05-05T06:33:35.995Z,78938.13
2023-05-05T06:36:05.224Z,78949.72
2023-05-05T06:38:34.161Z,78884.31
2023-05-05T06:41:03.431Z,78921.13
2023-05-05T06:43:32.435Z,78898.63
2023-05-05T06:46:05.257Z,78919.53
2023-05-05T06:48:34.295Z,78940.00
2023-05-05T06:51:03.866Z,78917.91
2023-05-05T06:53:32.893Z,78923.47
2023-05-05T06:56:02.004Z,78910.91
2023-05-05T06:58:33.002Z,78914.97
2023-05-05T07:01:02.083Z,78896.13
2023-05-05T07:03:32.163Z,78906.31
2023-05-05T07:06:01.822Z,78891.38
2023-05-05T07:08:30.801Z,78886.88
2023-05-05T07:11:02.265Z,78913.75
2023-05-05T07:13:32.008Z,78891.97
2023-05-05T07:16:01.416Z,78862.63
2023-05-05T07:18:30.456Z,78896.03
2023-05-05T07:20:59.649Z,78895.50
2023-05-05T07:23:29.188Z,78877.19
2023-05-05T07:25:58.289Z,78867.22
2023-05-05T07:28:28.211Z,78872.22
2023-05-05T07:30:57.185Z,78883.00
2023-05-05T07:33:26.199Z,78879.06
2023-05-05T07:35:55.408Z,78867.16
2023-05-05T07:38:26.318Z,78889.38
2023-05-05T07:40:55.277Z,78860.31
2023-05-05T07:43:24.842Z,78871.50
2023-05-05T07:45:53.974Z,78867.63
2023-05-05T07:48:23.158Z,78873.78
2023-05-05T07:50:53.479Z,78860.53
2023-05-05T07:53:22.401Z,78856.34
2023-05-05T07:55:52.185Z,78874.44
2023-05-05T07:58:21.323Z,78852.91
2023-05-05T08:00:51.932Z,78870.03
2023-05-05T08:03:25.253Z,78841.63
2023-05-05T08:05:56.501Z,78866.50
2023-05-05T08:08:25.581Z,78831.09
2023-05-05T08:10:55.702Z,78859.66
2023-05-05T08:13:25.169Z,78861.38
2023-05-05T08:15:54.890Z,78858.44
2023-05-05T08:18:23.840Z,78846.31
2023-05-05T08:20:53.928Z,78848.63
2023-05-05T08:23:22.831Z,78837.81
2023-05-05T08:25:52.086Z,78838.03
2023-05-05T08:28:21.637Z,78810.47
2023-05-05T08:30:53.154Z,78855.16
2023-05-05T08:33:22.262Z,78844.19
2023-05-05T08:35:51.146Z,78854.78
2023-05-05T08:38:20.206Z,78844.97
2023-05-05T08:40:49.187Z,78837.13
2023-05-05T08:43:21.201Z,78855.13
2023-05-05T08:45:52.700Z,78849.31
2023-05-05T08:48:24.525Z,78831.72
2023-05-05T08:51:01.957Z,78837.28
2023-05-05T08:53:57.304Z,78846.81
2023-05-05T08:56:34.746Z,78844.88
2023-05-05T08:59:04.578Z,78840.84
2023-05-05T09:01:35.584Z,78830.72
2023-05-05T09:04:06.036Z,78819.31
2023-05-05T09:06:36.541Z,78828.09
2023-05-05T09:09:05.671Z,78810.00
2023-05-05T09:11:36.751Z,78817.53
2023-05-05T09:14:05.760Z,78814.41
2023-05-05T09:16:35.004Z,78817.41
2023-05-05T09:19:07.272Z,78787.41
2023-05-05T09:21:36.431Z,78783.59
2023-05-05T09:24:10.793Z,78777.09
2023-05-05T09:26:42.992Z,78795.34
2023-05-05T09:29:20.440Z,78781.00
2023-05-05T09:32:09.488Z,78794.41
2023-05-05T09:34:40.131Z,78773.88
2023-05-05T09:37:08.993Z,78769.25
2023-05-05T09:39:38.194Z,78750.94
2023-05-05T09:42:07.252Z,78761.13
2023-05-05T09:44:41.279Z,78761.72
2023-05-05T09:47:26.112Z,78752.00
2023-05-05T09:50:01.033Z,78731.00
2023-05-05T09:52:31.355Z,78731.41
2023-05-05T09:55:00.578Z,78735.13
2023-05-05T09:57:34.877Z,78740.94
2023-05-05T10:00:05.389Z,78713.41
2023-05-05T10:02:39.747Z,78705.66
2023-05-05T10:05:18.277Z,78734.81
2023-05-05T10:07:48.989Z,78741.78
2023-05-05T10:10:19.192Z,78709.69
2023-05-05T10:12:50.560Z,78711.50
2023-05-05T10:15:20.104Z,78710.91
2023-05-05T10:18:06.164Z,78685.91
2023-05-05T10:20:39.396Z,78733.28
2023-05-05T10:23:11.683Z,78712.31
2023-05-05T10:25:58.431Z,78719.91
2023-05-05T10:28:34.589Z,78720.56
2023-05-05T10:31:16.228Z,78724.53
2023-05-05T10:34:04.600Z,78718.31
2023-05-05T10:36:34.691Z,78729.81
2023-05-05T10:39:04.391Z,78721.34
2023-05-05T10:41:35.316Z,78727.22
2023-05-05T10:44:05.497Z,78727.66
2023-05-05T10:46:35.202Z,78726.44
2023-05-05T10:49:23.849Z,78726.28
2023-05-05T10:52:05.569Z,78715.00
2023-05-05T10:54:41.295Z,78713.50
2023-05-05T10:57:13.502Z,78682.78
2023-05-05T10:59:43.507Z,78709.66
2023-05-05T11:02:33.105Z,78702.16
2023-05-05T11:05:23.082Z,78720.78
2023-05-05T11:07:53.062Z,78698.13
2023-05-05T11:10:24.013Z,78713.50
2023-05-05T11:12:58.265Z,78729.41
2023-05-05T11:15:32.719Z,78728.44
2023-05-05T11:18:06.733Z,78707.94
2023-05-05T11:20:41.454Z,78729.63
2023-05-05T11:23:10.318Z,78727.78
2023-05-05T11:25:41.540Z,78725.19
2023-05-05T11:28:16.016Z,78725.34
2023-05-05T11:30:59.853Z,78728.69
2023-05-05T11:33:32.099Z,78731.19
2023-05-05T11:36:06.944Z,78726.59
2023-05-05T11:39:00.989Z,78718.13
2023-05-05T11:41:35.793Z,78710.75
2023-05-05T11:44:16.742Z,78712.16
2023-05-05T11:46:56.210Z,78717.47
2023-05-05T11:49:38.339Z,78714.91
2023-05-05T11:52:09.208Z,78716.09
2023-05-05T11:54:50.042Z,78699.59
2023-05-05T11:57:24.346Z,78729.75
2023-05-05T12:00:09.582Z,78710.44
2023-05-05T12:02:39.063Z,78699.28
2023-05-05T12:05:08.958Z,78688.34
2023-05-05T12:07:38.132Z,78711.94
2023-05-05T12:10:20.026Z,78687.06
2023-05-05T12:12:49.041Z,78689.19
2023-05-05T12:15:18.677Z,78703.56
2023-05-05T12:17:52.654Z,78715.44
2023-05-05T12:20:35.468Z,78721.56
2023-05-05T12:23:05.240Z,78719.47
2023-05-05T12:25:39.221Z,78708.53
2023-05-05T12:28:10.063Z,78717.81
2023-05-05T12:30:39.093Z,78650.25
2023-05-05T12:35:52.286Z,78690.50
2023-05-05T12:38:22.779Z,78682.91
2023-05-05T12:40:54.769Z,78683.41
2023-05-05T12:43:34.967Z,78681.66
2023-05-05T12:46:10.431Z,78687.69
2023-05-05T12:48:41.819Z,78692.34
2023-05-05T12:51:21.980Z,78685.50
2023-05-05T12:54:06.732Z,78695.13
2023-05-05T12:56:47.053Z,78624.91
2023-05-05T12:59:26.820Z,78702.72
2023-05-05T13:01:57.262Z,78695.81
2023-05-05T13:04:28.413Z,78698.94
2023-05-05T13:07:12.646Z,78673.16
2023-05-05T13:09:42.519Z,78687.66
2023-05-05T13:12:14.052Z,78697.16
2023-05-05T13:14:43.281Z,78698.97
2023-05-05T13:17:13.134Z,78681.63
2023-05-05T13:19:47.355Z,78666.63
2023-05-05T13:22:17.829Z,78693.59
2023-05-05T13:24:51.781Z,78678.94
2023-05-05T13:27:22.156Z,78694.78
2023-05-05T13:29:51.356Z,78667.84
2023-05-05T13:32:20.149Z,78662.19
2023-05-05T13:34:49.853Z,78702.34
2023-05-05T13:37:20.834Z,78687.22
2023-05-05T13:39:49.930Z,78682.97
2023-05-05T13:42:20.673Z,78700.63
2023-05-05T13:44:49.599Z,78690.53
2023-05-05T13:47:18.731Z,78705.63
2023-05-05T13:49:48.128Z,78692.56
2023-05-05T13:52:17.167Z,78707.13
2023-05-05T13:54:46.552Z,78707.38
2023-05-05T13:57:16.024Z,78690.00
2023-05-05T13:59:45.752Z,78716.34
2023-05-05T14:02:14.793Z,78699.69
2023-05-05T14:04:43.900Z,78708.44
2023-05-05T14:07:12.996Z,78710.84
2023-05-05T14:09:42.119Z,78717.28
2023-05-05T14:12:11.049Z,78725.75
2023-05-05T14:14:40.129Z,78734.28
2023-05-05T14:17:08.985Z,78738.81
2023-05-05T14:19:37.988Z,78733.91
2023-05-05T14:22:06.964Z,78706.16
2023-05-05T14:24:37.511Z,78735.22
2023-05-05T14:27:06.692Z,78741.81
2023-05-05T14:29:36.169Z,78706.16
2023-05-05T14:32:05.977Z,78756.22
2023-05-05T14:34:35.379Z,78763.19
2023-05-05T14:37:05.484Z,78774.03
2023-05-05T14:39:55.690Z,78757.88
2023-05-05T14:42:25.388Z,78757.94
2023-05-05T14:44:54.518Z,78782.56
2023-05-05T14:47:24.119Z,78764.56
2023-05-05T14:49:53.046Z,78757.91
2023-05-05T14:52:22.011Z,78714.56
2023-05-05T14:54:51.121Z,78772.38
2023-05-05T14:57:20.447Z,78766.88
2023-05-05T14:59:52.953Z,78774.22
2023-05-05T15:02:22.013Z,78761.97
2023-05-05T15:04:51.010Z,78756.16
2023-05-05T15:07:28.821Z,78753.00
2023-05-05T15:09:57.709Z,78772.84
2023-05-05T15:12:27.083Z,78774.03
2023-05-05T15:14:56.451Z,78742.50
2023-05-05T15:17:25.729Z,78758.28
2023-05-05T15:19:54.704Z,78772.13
2023-05-05T15:22:24.100Z,78764.06
2023-05-05T15:24:53.681Z,78763.69
2023-05-05T15:27:28.646Z,78718.47
2023-05-05T15:30:03.071Z,78773.81
2023-05-05T15:33:25.306Z,78746.25
2023-05-05T15:35:57.932Z,78780.59
2023-05-05T15:38:29.316Z,78770.09
2023-05-05T15:41:09.726Z,78766.66
2023-05-05T15:43:40.981Z,78772.13
2023-05-05T15:46:09.827Z,78782.69
2023-05-05T15:48:38.598Z,78787.97
2023-05-05T15:51:16.910Z,78761.06
2023-05-05T15:53:47.376Z,78735.91
2023-05-05T15:56:15.989Z,78748.94
2023-05-05T15:58:45.082Z,78768.13
2023-05-05T16:01:13.992Z,78794.50
2023-05-05T16:03:43.441Z,78793.13
2023-05-05T16:06:15.612Z,78805.59
2023-05-05T16:11:27.859Z,78768.84
2023-05-05T16:13:57.651Z,78813.41
2023-05-05T16:16:26.615Z,78807.94
2023-05-05T16:18:55.794Z,78783.47
2023-05-05T16:21:24.723Z,78809.03
2023-05-05T16:23:53.804Z,78780.28
2023-05-05T16:29:04.790Z,78791.59
2023-05-05T16:31:34.774Z,78782.91
2023-05-05T16:34:03.684Z,78785.63
2023-05-05T16:39:16.098Z,78803.00
2023-05-05T16:41:44.825Z,78793.75
